Rechercher aéroport 
image banner adimage banner ad
image banner ad

SSRU - São Lourenço do Sul Airport

Situé à São Lourenço Do Sul, Brazil

ICAO - SSRU, IATA - SQY

Données fournies par Airmate  

Information générale

Coordonnées: S31°22'60" W52°1'58"
Élévation : 26 feet MSL.
Variation magnétique : -16° East
Voir autres Aéroports à Rio Grande do Sul

Données opérationnelles

Accessible au public
Heure actuelle UTC:
Heure actuelle locale:
Météo à : SBPK - Pelotas ( 47 km )
TAF: TAF SBPK 270900Z 2712/2812 08010KT 8000 BKN009 TX25/2716Z TN17/2807Z BECMG 2714/2716 9999 NSW SCT015 BECMG 2722/2724 FEW030 TEMPO 2806/2809 4000 BR RMK PEA
Voir NOTAMs / SUP AIP / TFR affectant cet aéroport [VIEW]
Fréquences de communication: [VIEW]

Pistes:

Identifiant RWYQFULongueur (ft)Largeur (ft)SurfaceLDA (ft)
21360959GRE
03360959UNK

Coordonnées de l'aéroport

Adresse: São Lourenço Do Sul Brazil

Vue satellite de SSRU